Αρχική σελίδα
METAR-TAF:

METAR-TAF

Αεροδρόμια :

Liverpool Bay, Βορειοδυτικά Εδάφη, Καναδάς

γεωγραφικό πλάτος: 69-36N, γεωγραφικό μήκος: 130-54W, υψόμετρο: 102 μ

Παρών καιρός

Η αναφορά έγινε 56 λεπτά πριν, στις 02:00 UTC
Άνεμος 2 kt από Β
Θερμοκρασία -10°C
Υγρασία 92%
Πίεση 1027 hPa

METAR: CWLI 260200Z AUTO 35002KT ////SM //// NCD M10/M11 A3033

Χρόνος: 20:56 (02:56 UTC)


TAF: λείπει

Μετεωρολογικές αναφορές και προγνώσεις για περισσότερα από 4000 αεροδρόμια (δελτία METAR και TAF).

Οι διαθέσιμοι σταθμοί απεικονίζονται στο χάρτη με κίτρινες και κόκκινες κουκκίδες.

Μετακινήστε το ποντίκι πάνω από τις κουκκίδες για να δείτε το όνομα του σταθμού.

Στη συνέχεια, κάντε κλικ για να δείτε τις μετεωρολογικές αναφορές και τις προγνώσεις καιρού.

Για να αλλάξετε το χάρτη: κάντε κλικ στα πράσινα κουμπιά με τον μαύρο σταυρό για να ζουμάρετε, στο πράσινο κουμπί με την παύλα για να αφαιρέσετε το ζουμ ή στα πράσινα βέλη για να αντιπαραβάλλετε χάρτες.


METAR-TAF: